Time;durP1;ratioP1;P1;durP2;ratioP2;P2;SDS_P1;SDS_P2;PMS_P1;PMS_P2;Temp;Humidity;BMP_temperature;BMP_pressure;BME280_temperature;BME280_humidity;BME280_pressure;Samples;Min_cycle;Max_cycle;Signal;HPM_P1;HPM_P2
2021/09/12 00:01:59;;;;;;;19.90;15.37;;;;;;;17.77;78.96;100494.63;5030216;28;20213;-70
2021/09/12 00:04:27;;;;;;;12.93;11.70;;;;;;;17.76;79.41;100492.94;5030178;28;20198;-70
2021/09/12 00:06:55;;;;;;;11.83;6.80;;;;;;;17.74;79.87;100494.06;5029679;28;20272;-69
2021/09/12 00:09:24;;;;;;;5.17;3.80;;;;;;;17.72;80.92;100493.38;5029341;28;20288;-69
2021/09/12 00:11:53;;;;;;;23.03;20.87;;;;;;;17.76;80.28;100492.06;5030015;28;20225;-69
2021/09/12 00:14:21;;;;;;;7.83;7.03;;;;;;;17.77;81.33;100493.78;5026825;28;20624;-70
2021/09/12 00:16:49;;;;;;;7.00;6.30;;;;;;;17.75;80.79;100482.19;5024108;28;20207;-69
2021/09/12 00:19:17;;;;;;;26.53;23.83;;;;;;;17.85;79.61;100486.53;5029923;28;20230;-69
2021/09/12 00:21:45;;;;;;;12.63;10.93;;;;;;;17.80;80.15;100477.16;5027950;28;20619;-69
2021/09/12 00:24:13;;;;;;;8.07;6.77;;;;;;;17.78;80.08;100473.75;5030254;28;20552;-70
2021/09/12 00:26:41;;;;;;;11.83;10.67;;;;;;;17.84;80.17;100467.69;5029846;28;20223;-69
2021/09/12 00:29:11;;;;;;;8.10;7.27;;;;;;;17.89;80.28;100470.78;5030308;28;20252;-70
2021/09/12 00:31:39;;;;;;;6.43;3.30;;;;;;;17.88;80.48;100479.94;5028439;28;20214;-69
2021/09/12 00:34:07;;;;;;;6.97;6.23;;;;;;;17.73;80.06;100451.59;5029886;28;20210;-69
2021/09/12 00:36:35;;;;;;;5.43;2.90;;;;;;;17.90;79.66;100469.75;5045152;28;20260;-69
2021/09/12 00:39:03;;;;;;;3.87;2.80;;;;;;;17.88;80.14;100467.19;5028532;28;20518;-69
2021/09/12 00:41:35;;;;;;;4.20;3.13;;;;;;;17.84;79.58;100456.81;5028050;28;20215;-69
2021/09/12 00:44:04;;;;;;;5.13;2.90;;;;;;;17.82;79.01;100464.28;5029428;28;20613;-69
2021/09/12 00:46:33;;;;;;;795.77;622.43;;;;;;;17.80;78.89;100461.72;5029676;28;20309;-70
2021/09/12 00:49:01;;;;;;;2.63;2.43;;;;;;;17.79;78.86;100464.59;5029317;28;20301;-70
2021/09/12 00:51:29;;;;;;;2.97;2.50;;;;;;;17.72;79.34;100458.06;5029642;28;20269;-69
2021/09/12 00:53:58;;;;;;;3.63;2.73;;;;;;;17.67;79.49;100462.09;5029219;28;20207;-70
2021/09/12 00:56:28;;;;;;;4.90;2.33;;;;;;;17.62;79.73;100452.69;5029435;28;20245;-69
2021/09/12 00:58:57;;;;;;;3.00;2.30;;;;;;;17.61;80.20;100454.53;5028919;28;20662;-70
2021/09/12 01:01:26;;;;;;;4.87;2.50;;;;;;;17.54;79.33;100445.31;5033276;28;20236;-70
2021/09/12 01:03:56;;;;;;;3.23;2.60;;;;;;;17.58;80.17;100456.72;5039623;28;20205;-70
2021/09/12 01:06:24;;;;;;;2.50;2.30;;;;;;;17.58;79.77;100456.72;5038448;28;20238;-70
2021/09/12 01:08:52;;;;;;;6.70;2.73;;;;;;;17.58;79.70;100456.72;5014468;28;20234;-70
2021/09/12 01:11:20;;;;;;;2.67;2.10;;;;;;;17.53;80.32;100454.47;5033918;28;20202;-70
2021/09/12 01:13:48;;;;;;;4.70;2.60;;;;;;;17.52;80.13;100447.34;5018862;28;20223;-70
2021/09/12 01:16:18;;;;;;;2.73;2.30;;;;;;;17.56;79.76;100447.88;5024949;28;20211;-70
2021/09/12 01:18:47;;;;;;;2.53;2.00;;;;;;;17.54;80.18;100447.19;5027321;28;20242;-70
2021/09/12 01:21:19;;;;;;;2.47;2.00;;;;;;;17.51;80.23;100436.66;5044305;28;20622;-70
2021/09/12 01:23:48;;;;;;;2.50;2.30;;;;;;;17.52;80.44;100436.50;5028576;28;20241;-70
2021/09/12 01:26:21;;;;;;;3.30;2.30;;;;;;;17.53;80.25;100443.63;5027364;28;20233;-70
2021/09/12 01:28:50;;;;;;;2.33;2.13;;;;;;;17.47;80.59;100433.38;5028762;28;20207;-70
2021/09/12 01:31:22;;;;;;;2.03;1.83;;;;;;;17.50;80.03;100438.50;5029053;28;20609;-70
2021/09/12 01:33:55;;;;;;;3.83;2.20;;;;;;;17.50;79.82;100438.50;5028516;28;20198;-70
2021/09/12 01:36:24;;;;;;;3.90;2.70;;;;;;;17.48;79.80;100436.97;5028691;28;20289;-70
2021/09/12 01:38:52;;;;;;;3.67;2.13;;;;;;;17.49;79.90;100438.66;5028446;28;20272;-70
2021/09/12 01:41:22;;;;;;;3.50;2.40;;;;;;;17.45;79.64;100435.41;5028834;28;20198;-70
2021/09/12 01:43:52;;;;;;;3.07;2.30;;;;;;;17.45;80.38;100446.28;5028397;28;20449;-70
2021/09/12 01:46:20;;;;;;;2.90;2.53;;;;;;;17.45;79.57;100446.28;5028392;28;20241;-70
2021/09/12 01:48:48;;;;;;;2.30;2.10;;;;;;;17.38;80.55;100437.88;5028312;28;20210;-70
2021/09/12 01:51:17;;;;;;;2.67;2.43;;;;;;;16.99;80.35;100372.19;5028631;28;20210;-70
2021/09/12 01:53:46;;;;;;;2.30;2.10;;;;;;;17.36;80.02;100442.59;5027363;28;20347;-70
2021/09/12 01:56:15;;;;;;;3.33;2.30;;;;;;;17.35;80.92;100442.75;5028542;28;20229;-70
2021/09/12 01:58:44;;;;;;;3.50;2.60;;;;;;;17.34;80.97;100441.06;5028274;28;20221;-70
2021/09/12 02:01:12;;;;;;;2.40;2.20;;;;;;;17.32;80.71;100451.22;5028195;28;20569;-70
2021/09/12 02:03:41;;;;;;;3.20;2.40;;;;;;;17.29;80.94;100437.94;5028131;28;20590;-70
2021/09/12 02:06:09;;;;;;;5.57;2.77;;;;;;;17.26;81.83;100425.56;5027888;28;20214;-70
2021/09/12 02:08:37;;;;;;;3.80;2.50;;;;;;;17.28;81.95;100436.25;5028389;28;20206;-70
2021/09/12 02:11:05;;;;;;;2.80;2.40;;;;;;;17.30;81.84;100437.81;5027923;28;20217;-70
2021/09/12 02:13:33;;;;;;;5.43;2.80;;;;;;;17.32;81.67;100434.94;5028536;28;20260;-70
2021/09/12 02:16:03;;;;;;;3.93;2.63;;;;;;;17.32;81.33;100437.66;5042905;28;20202;-70
2021/09/12 02:18:31;;;;;;;2.70;2.40;;;;;;;17.29;82.17;100425.22;5027971;28;20673;-70
2021/09/12 02:20:59;;;;;;;3.23;2.33;;;;;;;17.30;81.86;100429.66;5028055;28;20245;-70
2021/09/12 02:23:27;;;;;;;3.63;2.80;;;;;;;17.31;81.46;100428.66;5028102;28;20280;-70
2021/09/12 02:25:56;;;;;;;2.70;2.43;;;;;;;17.34;82.00;100432.91;5027887;28;20654;-70
2021/09/12 02:28:24;;;;;;;3.70;2.60;;;;;;;17.36;81.32;100429.03;5028023;28;20558;-70
2021/09/12 02:30:52;;;;;;;3.33;2.80;;;;;;;17.35;81.51;100424.59;5028026;28;20289;-70
2021/09/12 02:33:21;;;;;;;2.83;2.40;;;;;;;17.37;81.29;100421.72;5027979;28;20212;-70
2021/09/12 02:35:49;;;;;;;4.47;2.80;;;;;;;17.36;81.93;100426.31;5028151;28;20207;-70
2021/09/12 02:38:17;;;;;;;4.07;3.10;;;;;;;17.31;82.21;100419.66;5027787;28;20662;-70
2021/09/12 02:40:45;;;;;;;5.77;2.83;;;;;;;17.16;81.80;100396.78;5028121;28;20202;-70
2021/09/12 02:43:13;;;;;;;4.30;3.30;;;;;;;17.31;82.44;100423.22;5027611;28;20199;-70
2021/09/12 02:45:41;;;;;;;4.10;2.90;;;;;;;17.36;81.89;100422.75;5019636;28;20195;-70
2021/09/12 02:48:09;;;;;;;5.23;3.33;;;;;;;17.31;82.56;100419.66;5027807;28;20738;-70
2021/09/12 02:50:39;;;;;;;4.87;3.47;;;;;;;17.31;82.65;100411.50;5027827;28;20547;-70
2021/09/12 02:53:07;;;;;;;4.40;3.27;;;;;;;17.33;82.19;100413.06;5043010;28;20225;-69
2021/09/12 02:55:35;;;;;;;4.33;3.40;;;;;;;17.31;82.60;100419.66;5027779;28;20203;-70
2021/09/12 02:58:03;;;;;;;5.03;3.60;;;;;;;17.31;82.49;100414.22;5027931;28;20681;-70
2021/09/12 03:00:31;;;;;;;7.37;3.40;;;;;;;17.33;82.31;100414.91;5027709;28;20210;-69
2021/09/12 03:02:59;;;;;;;6.47;3.27;;;;;;;17.38;83.13;100408.00;5042658;28;20202;-70
2021/09/12 03:05:27;;;;;;;3.93;2.93;;;;;;;17.37;83.10;100406.31;5029432;28;20638;-70
2021/09/12 03:07:57;;;;;;;6.37;3.40;;;;;;;17.41;82.73;100398.69;5030994;28;20230;-69
2021/09/12 03:10:24;;;;;;;5.23;3.60;;;;;;;17.19;82.41;100369.34;5031331;28;20261;-70
2021/09/12 03:12:53;;;;;;;4.50;3.37;;;;;;;17.42;82.55;100408.53;5046308;28;20203;-70
2021/09/12 03:15:21;;;;;;;4.83;3.03;;;;;;;17.37;83.13;100403.59;5031394;28;20206;-70
2021/09/12 03:17:49;;;;;;;4.67;3.10;;;;;;;17.40;82.40;100405.13;5030783;28;20654;-70
2021/09/12 03:20:18;;;;;;;4.73;3.10;;;;;;;17.34;82.98;100406.63;5031624;28;20195;-69
2021/09/12 03:22:46;;;;;;;4.70;3.33;;;;;;;17.32;82.75;100403.22;5030956;28;20227;-70
2021/09/12 03:25:15;;;;;;;4.40;3.03;;;;;;;17.31;83.39;100393.34;5029540;28;20205;-70
2021/09/12 03:27:44;;;;;;;4.97;3.17;;;;;;;17.31;83.67;100398.78;5030969;28;20546;-70
2021/09/12 03:30:12;;;;;;;4.93;3.10;;;;;;;17.34;83.91;100397.63;5030623;28;20203;-70
2021/09/12 03:32:40;;;;;;;4.47;2.83;;;;;;;17.32;84.42;100394.22;5031400;28;20199;-70
2021/09/12 03:35:09;;;;;;;3.53;2.70;;;;;;;17.35;83.39;100392.03;5030409;28;20203;-70
2021/09/12 03:37:37;;;;;;;3.77;2.93;;;;;;;17.29;84.73;100383.66;5031048;28;20194;-71
2021/09/12 03:40:07;;;;;;;711.43;509.90;;;;;;;17.34;84.47;100389.47;5045969;28;20218;-70
2021/09/12 03:42:37;;;;;;;50.17;37.03;;;;;;;17.23;83.12;100363.44;5030930;28;20252;-70
2021/09/12 03:45:06;;;;;;;122.70;111.90;;;;;;;17.43;83.68;100384.97;5030426;28;20658;-70
2021/09/12 03:47:34;;;;;;;71.90;65.53;;;;;;;17.48;84.36;100388.09;5030565;28;20233;-70
2021/09/12 03:50:02;;;;;;;17.17;15.47;;;;;;;17.53;85.21;100378.44;5029201;28;20210;-70
2021/09/12 03:52:30;;;;;;;10.57;9.50;;;;;;;17.60;85.79;100374.09;5030447;28;20269;-70
2021/09/12 03:54:58;;;;;;;7.37;6.20;;;;;;;17.68;85.22;100381.47;5030555;28;20264;-69
2021/09/12 03:57:26;;;;;;;27.47;24.87;;;;;;;17.28;84.17;100305.97;5030424;28;20199;-70
2021/09/12 03:59:56;;;;;;;15.37;13.77;;;;;;;17.74;84.66;100379.97;5030218;28;20207;-70
2021/09/12 04:02:24;;;;;;;5.63;4.77;;;;;;;17.73;84.47;100376.41;5029890;28;20194;-69
2021/09/12 04:04:52;;;;;;;8.23;6.53;;;;;;;17.78;84.18;100373.22;5029888;28;20194;-69
2021/09/12 04:07:20;;;;;;;21.77;19.63;;;;;;;17.77;83.51;100363.38;5029766;28;20285;-70
2021/09/12 04:09:48;;;;;;;17.73;15.87;;;;;;;17.78;84.10;100373.22;5028689;28;20211;-70
2021/09/12 04:12:16;;;;;;;10.80;8.20;;;;;;;17.76;84.71;100372.53;5030030;28;20207;-70
2021/09/12 04:14:44;;;;;;;6.57;4.30;;;;;;;17.77;84.74;100368.81;5029857;28;20195;-69
2021/09/12 04:17:14;;;;;;;4.57;3.67;;;;;;;17.80;83.72;100369.34;5028855;28;20284;-69
2021/09/12 04:19:42;;;;;;;6.33;3.63;;;;;;;17.80;83.52;100368.50;5045051;28;20206;-69
2021/09/12 04:22:10;;;;;;;3.63;3.17;;;;;;;17.77;83.83;100361.53;5029654;28;20341;-70
2021/09/12 04:24:38;;;;;;;6.27;3.90;;;;;;;17.73;83.47;100362.81;5029558;28;20199;-70
2021/09/12 04:27:06;;;;;;;5.03;3.57;;;;;;;17.73;83.72;100354.66;5029329;28;20688;-69
2021/09/12 04:29:34;;;;;;;5.30;3.43;;;;;;;17.64;84.34;100361.88;5029938;28;20268;-69
2021/09/12 04:32:03;;;;;;;4.50;3.13;;;;;;;17.68;83.62;100355.16;5028950;28;20634;-70
2021/09/12 04:34:32;;;;;;;6.43;3.63;;;;;;;17.67;83.72;100355.31;5026805;28;20633;-69
2021/09/12 04:37:00;;;;;;;4.47;3.20;;;;;;;17.64;83.95;100364.59;5028916;28;20723;-69
2021/09/12 04:39:28;;;;;;;4.63;3.50;;;;;;;17.67;83.14;100353.44;5028612;28;20203;-69
2021/09/12 04:41:56;;;;;;;4.87;3.00;;;;;;;17.65;83.20;100365.47;5026654;28;20260;-69
2021/09/12 04:44:24;;;;;;;4.23;3.07;;;;;;;17.65;83.46;100354.59;5023889;28;20563;-70
2021/09/12 04:46:52;;;;;;;3.97;3.10;;;;;;;17.61;82.91;100353.22;5023758;28;20198;-69
2021/09/12 04:49:20;;;;;;;7.00;3.40;;;;;;;17.51;83.94;100358.75;5026121;28;20218;-70
2021/09/12 04:51:50;;;;;;;5.17;3.17;;;;;;;17.49;83.99;100354.50;5029100;28;20206;-70
2021/09/12 04:54:18;;;;;;;3.53;2.60;;;;;;;17.36;84.38;100350.31;5027531;28;20209;-70
2021/09/12 04:56:46;;;;;;;3.03;2.63;;;;;;;17.34;84.97;100348.75;5014915;28;20266;-69
2021/09/12 04:59:14;;;;;;;3.83;2.87;;;;;;;17.36;84.12;100354.88;5026632;28;20692;-70
2021/09/12 05:01:42;;;;;;;4.50;3.00;;;;;;;17.34;84.38;100346.03;5026406;28;20657;-70
2021/09/12 05:04:10;;;;;;;4.77;3.20;;;;;;;17.38;83.81;100348.28;5027688;28;20199;-70
2021/09/12 05:06:38;;;;;;;6.33;3.20;;;;;;;17.22;84.46;100318.31;5024345;28;20199;-70
2021/09/12 05:09:08;;;;;;;3.57;2.90;;;;;;;17.48;83.97;100350.91;5017478;28;20554;-70
2021/09/12 05:11:36;;;;;;;4.53;3.07;;;;;;;17.50;84.64;100351.63;5035722;28;20221;-70
2021/09/12 05:14:04;;;;;;;6.57;3.20;;;;;;;17.50;84.39;100346.19;5012759;28;20264;-71
2021/09/12 05:16:32;;;;;;;5.53;3.07;;;;;;;17.59;84.19;100349.81;5015660;28;20215;-70
2021/09/12 05:19:00;;;;;;;6.60;2.93;;;;;;;17.67;84.90;100341.72;5019459;28;20239;-70
2021/09/12 05:21:28;;;;;;;6.70;3.07;;;;;;;17.76;84.85;100345.38;5024750;28;20209;-70
2021/09/12 05:23:56;;;;;;;4.80;3.40;;;;;;;17.86;84.98;100349.69;5014840;28;20377;-70
2021/09/12 05:26:26;;;;;;;4.23;2.90;;;;;;;17.91;85.07;100343.75;5027596;28;20203;-70
2021/09/12 05:28:54;;;;;;;3.90;2.93;;;;;;;17.94;85.13;100348.88;5016094;28;20230;-70
2021/09/12 05:31:22;;;;;;;5.87;3.23;;;;;;;17.99;84.43;100346.50;5028735;28;20649;-70
2021/09/12 05:33:50;;;;;;;3.30;2.83;;;;;;;18.04;84.16;100346.88;5014989;28;20237;-70
2021/09/12 05:36:18;;;;;;;3.20;2.90;;;;;;;18.08;83.94;100348.28;5027868;28;20207;-70
2021/09/12 05:38:46;;;;;;;4.93;3.30;;;;;;;18.11;83.89;100353.41;5022777;28;20579;-70
2021/09/12 05:41:14;;;;;;;3.90;3.20;;;;;;;18.14;83.68;100358.50;5028994;28;20199;-70
2021/09/12 05:43:43;;;;;;;4.60;3.40;;;;;;;18.19;83.59;100356.13;5026098;28;20331;-70
2021/09/12 05:46:11;;;;;;;3.33;2.93;;;;;;;18.22;83.26;100358.53;5027797;28;20229;-70
2021/09/12 05:48:40;;;;;;;4.80;3.43;;;;;;;18.18;83.52;100357.16;5027764;28;20720;-70
2021/09/12 05:51:08;;;;;;;4.37;3.20;;;;;;;18.19;83.92;100356.13;5027500;28;20268;-70
2021/09/12 05:53:36;;;;;;;3.60;2.90;;;;;;;18.23;83.48;100349.34;5026830;28;20673;-70
2021/09/12 05:56:04;;;;;;;4.63;3.30;;;;;;;18.20;83.75;100349.69;5028453;28;20194;-70
2021/09/12 05:58:32;;;;;;;4.93;3.40;;;;;;;18.24;82.99;100344.78;5018799;28;20199;-71
2021/09/12 06:01:02;;;;;;;4.47;3.10;;;;;;;18.16;83.93;100331.16;5018061;28;20673;-70
2021/09/12 06:03:30;;;;;;;4.83;3.20;;;;;;;18.16;83.54;100339.31;5025137;28;20618;-70
2021/09/12 06:05:59;;;;;;;4.83;3.20;;;;;;;18.14;83.85;100331.31;5026956;28;20198;-70
2021/09/12 06:08:27;;;;;;;4.17;3.03;;;;;;;18.20;83.81;100338.81;5024907;28;20245;-70
2021/09/12 06:10:55;;;;;;;4.47;3.13;;;;;;;18.25;83.64;100336.44;5020584;28;20624;-70
2021/09/12 06:13:25;;;;;;;4.50;3.53;;;;;;;18.23;83.98;100335.75;5026299;28;20607;-70
2021/09/12 06:15:53;;;;;;;5.60;3.30;;;;;;;18.34;83.14;100339.19;5027471;28;20242;-71
2021/09/12 06:18:23;;;;;;;4.90;3.13;;;;;;;18.38;82.67;100341.44;5027633;28;20292;-70
2021/09/12 06:20:51;;;;;;;6.80;3.20;;;;;;;18.43;83.07;100340.97;5028071;28;20198;-70
2021/09/12 06:23:19;;;;;;;5.77;3.60;;;;;;;18.42;83.38;100344.69;5020216;28;20257;-70
2021/09/12 06:25:47;;;;;;;4.30;3.13;;;;;;;18.45;83.17;100338.91;5020144;28;20206;-70
2021/09/12 06:28:15;;;;;;;4.87;3.60;;;;;;;18.40;83.62;100333.97;5023499;28;20683;-70
2021/09/12 06:30:43;;;;;;;4.53;3.30;;;;;;;18.47;82.94;100331.44;5026979;28;20210;-70
2021/09/12 06:33:11;;;;;;;7.27;2.90;;;;;;;18.56;82.42;100333.16;5028489;28;20559;-70
2021/09/12 06:35:41;;;;;;;6.40;3.50;;;;;;;18.59;82.24;100324.66;5028763;28;20202;-70
2021/09/12 06:38:12;;;;;;;4.60;3.30;;;;;;;18.57;82.71;100329.44;5028311;28;20290;-71
2021/09/12 06:40:40;;;;;;;5.87;3.60;;;;;;;18.60;82.84;100332.66;5031260;28;20206;-70
2021/09/12 06:43:08;;;;;;;6.03;3.77;;;;;;;18.46;83.02;100314.28;5040271;28;20219;-70
2021/09/12 06:45:36;;;;;;;5.17;3.53;;;;;;;18.56;83.24;100322.28;5017310;28;20214;-70
2021/09/12 06:48:05;;;;;;;6.07;3.73;;;;;;;18.65;83.10;100325.91;5031320;28;20283;-70
2021/09/12 06:50:33;;;;;;;4.10;3.10;;;;;;;18.71;82.10;100325.25;5031968;28;20666;-70
2021/09/12 06:53:02;;;;;;;5.07;3.20;;;;;;;18.70;83.01;100318.97;5028328;28;20210;-70
2021/09/12 06:55:30;;;;;;;5.07;3.20;;;;;;;18.72;82.83;100316.09;5030140;28;20257;-69
2021/09/12 06:57:58;;;;;;;5.10;3.50;;;;;;;18.71;83.38;100317.09;5040932;28;20218;-70
2021/09/12 07:00:27;;;;;;;4.73;3.40;;;;;;;18.56;83.48;100312.25;5028421;28;20208;-70
2021/09/12 07:02:55;;;;;;;5.60;3.30;;;;;;;18.62;83.48;100310.75;5031412;28;20199;-70
2021/09/12 07:05:24;;;;;;;5.07;3.50;;;;;;;18.28;83.47;100265.44;5029631;28;20198;-70
2021/09/12 07:07:52;;;;;;;7.20;3.37;;;;;;;18.47;83.38;100263.47;5031067;28;20585;-70
2021/09/12 07:10:22;;;;;;;5.00;3.30;;;;;;;18.83;83.53;100321.19;5043234;28;20223;-70
2021/09/12 07:12:51;;;;;;;3.83;3.20;;;;;;;18.93;82.82;100316.44;5029684;28;20206;-70
2021/09/12 07:15:19;;;;;;;5.53;3.50;;;;;;;19.06;83.30;100313.22;5027623;28;20211;-70
2021/09/12 07:17:48;;;;;;;5.57;3.37;;;;;;;19.34;82.56;100316.47;5027081;28;20246;-70
2021/09/12 07:20:16;;;;;;;5.30;3.80;;;;;;;19.54;83.02;100312.38;5029264;28;20198;-70
2021/09/12 07:22:46;;;;;;;4.67;3.53;;;;;;;19.79;82.63;100305.84;5028295;28;20229;-70
2021/09/12 07:25:15;;;;;;;5.77;3.60;;;;;;;19.84;82.09;100280.78;5028772;28;20198;-70
2021/09/12 07:27:45;;;;;;;5.63;3.27;;;;;;;20.24;80.49;100307.06;5027567;28;20191;-70
2021/09/12 07:30:14;;;;;;;5.10;3.27;;;;;;;20.38;79.98;100306.31;5028119;28;20222;-70
2021/09/12 07:32:43;;;;;;;5.50;3.10;;;;;;;20.35;78.48;100284.00;5026099;28;20202;-70
2021/09/12 07:35:11;;;;;;;6.87;3.43;;;;;;;20.46;78.12;100303.56;5039433;28;20217;-70
2021/09/12 07:37:40;;;;;;;3.93;2.90;;;;;;;20.62;77.61;100308.09;5025561;28;20524;-70
2021/09/12 07:40:09;;;;;;;3.10;2.80;;;;;;;20.59;77.99;100307.63;5027434;28;20256;-70
2021/09/12 07:42:40;;;;;;;5.33;3.30;;;;;;;20.64;77.18;100316.97;5030092;28;20195;-71
2021/09/12 07:45:10;;;;;;;4.83;3.50;;;;;;;20.54;77.30;100316.34;5027465;28;20294;-71
2021/09/12 07:47:38;;;;;;;4.13;2.93;;;;;;;20.59;76.07;100313.06;5025072;28;20199;-71
2021/09/12 07:50:07;;;;;;;3.27;2.87;;;;;;;20.61;75.28;100311.00;5026575;28;20218;-71
2021/09/12 07:52:36;;;;;;;6.43;3.17;;;;;;;20.56;75.54;100303.38;5026930;28;20194;-71
2021/09/12 07:55:05;;;;;;;3.73;3.10;;;;;;;20.58;76.43;100304.03;5029263;28;20638;-71
2021/09/12 07:57:33;;;;;;;5.47;3.60;;;;;;;20.43;76.69;100286.72;5027264;28;20741;-69
2021/09/12 08:00:01;;;;;;;7.60;3.13;;;;;;;20.65;76.51;100301.44;5021640;28;20838;-70
2021/09/12 08:02:40;;;;;;;5.23;3.20;;;;;;;20.61;75.55;100290.03;5027850;28;20216;-70
2021/09/12 08:05:10;;;;;;;8.90;3.40;;;;;;;20.78;74.48;100307.97;5024666;28;20196;-69
2021/09/12 08:07:38;;;;;;;4.57;3.27;;;;;;;20.82;74.89;100310.38;5025202;28;20692;-69
2021/09/12 08:10:06;;;;;;;3.77;2.83;;;;;;;20.56;74.66;100262.44;5022976;28;20725;-68
2021/09/12 08:12:35;;;;;;;4.67;3.57;;;;;;;20.89;74.95;100314.06;5024956;28;20210;-70
2021/09/12 08:15:03;;;;;;;5.50;3.13;;;;;;;20.97;73.55;100316.75;5024062;28;20199;-69
2021/09/12 08:17:31;;;;;;;4.67;3.53;;;;;;;20.99;73.36;100325.59;5040969;28;20238;-68
2021/09/12 08:20:01;;;;;;;4.83;3.30;;;;;;;21.05;74.00;100319.41;5026366;28;20693;-68
2021/09/12 08:22:29;;;;;;;7.30;3.30;;;;;;;21.05;74.31;100319.41;5040626;28;20235;-69
2021/09/12 08:24:57;;;;;;;5.53;3.17;;;;;;;20.97;74.59;100305.81;5026114;28;20198;-69
2021/09/12 08:27:25;;;;;;;3.80;3.00;;;;;;;21.11;74.81;100315.94;5027120;28;20206;-70
2021/09/12 08:29:53;;;;;;;3.80;3.03;;;;;;;21.20;72.34;100317.59;5026904;28;20562;-70
2021/09/12 08:32:21;;;;;;;4.27;2.87;;;;;;;21.25;72.08;100319.81;5028532;28;20225;-70
2021/09/12 08:34:49;;;;;;;3.20;2.80;;;;;;;21.24;73.11;100318.94;5028384;28;20195;-70
2021/09/12 08:37:19;;;;;;;4.10;3.00;;;;;;;21.09;74.29;100310.66;5027757;28;20199;-71
2021/09/12 08:39:48;;;;;;;4.90;3.00;;;;;;;20.67;72.89;100229.25;5027323;28;20257;-72
2021/09/12 08:42:19;;;;;;;3.90;2.87;;;;;;;21.10;73.87;100308.78;5025634;28;20245;-71
2021/09/12 08:44:48;;;;;;;3.07;2.60;;;;;;;21.11;74.02;100306.91;5024478;28;20191;-72
2021/09/12 08:47:16;;;;;;;3.47;2.90;;;;;;;21.04;73.42;100301.31;5025698;28;20252;-72
2021/09/12 08:49:45;;;;;;;4.97;2.80;;;;;;;21.01;72.75;100304.41;5023068;28;20628;-71
2021/09/12 08:52:14;;;;;;;4.67;2.80;;;;;;;20.93;73.31;100305.34;5027251;28;20259;-72
2021/09/12 08:54:44;;;;;;;3.03;2.50;;;;;;;20.89;72.66;100301.28;5025109;28;20248;-71
2021/09/12 08:57:12;;;;;;;3.73;2.70;;;;;;;20.65;72.96;100283.19;5025360;28;20198;-71
2021/09/12 08:59:40;;;;;;;3.47;2.60;;;;;;;20.94;72.38;100300.72;5024877;28;20195;-71
2021/09/12 09:02:09;;;;;;;3.07;2.40;;;;;;;20.82;73.34;100296.72;5020345;28;20728;-71
2021/09/12 09:04:38;;;;;;;3.80;2.20;;;;;;;20.95;71.47;100291.50;5022277;28;20199;-70
2021/09/12 09:07:08;;;;;;;1.73;1.63;;;;;;;21.03;71.14;100283.22;5020202;28;20617;-70
2021/09/12 09:09:46;;;;;;;2.90;1.80;;;;;;;21.00;72.54;100283.59;5029618;28;20198;-71
2021/09/12 09:12:25;;;;;;;5.47;1.87;;;;;;;21.12;71.31;100282.13;5027750;28;20206;-70
2021/09/12 09:15:05;;;;;;;2.43;1.63;;;;;;;21.19;70.89;100260.41;5041150;28;20198;-70
2021/09/12 09:17:38;;;;;;;1.93;1.73;;;;;;;21.26;70.70;100278.63;5028054;28;20225;-71
2021/09/12 09:20:08;;;;;;;3.27;1.70;;;;;;;21.24;70.56;100275.25;5026433;28;20242;-69
2021/09/12 09:22:38;;;;;;;3.17;1.70;;;;;;;21.26;70.14;100270.44;5023715;28;20207;-69
2021/09/12 09:25:15;;;;;;;2.47;1.93;;;;;;;21.48;70.14;100271.44;5025396;28;20202;-70
2021/09/12 09:27:55;;;;;;;1.90;1.73;;;;;;;21.68;68.79;100264.38;5027301;28;20209;-70
2021/09/12 09:30:24;;;;;;;2.37;1.80;;;;;;;21.70;68.60;100259.56;5027032;28;20210;-70
2021/09/12 09:32:52;;;;;;;1.47;1.37;;;;;;;21.83;67.66;100269.84;5026218;28;20264;-69
2021/09/12 09:35:25;;;;;;;2.20;1.47;;;;;;;21.86;67.84;100272.22;5024955;28;20917;-69
2021/09/12 09:37:53;;;;;;;1.70;1.60;;;;;;;21.73;68.33;100271.16;5028772;28;20202;-69
2021/09/12 09:40:23;;;;;;;1.83;1.63;;;;;;;21.88;67.35;100263.81;5027814;28;20195;-69
2021/09/12 09:42:51;;;;;;;1.70;1.60;;;;;;;21.94;67.60;100268.53;5028719;28;20195;-69
2021/09/12 09:45:21;;;;;;;2.00;1.60;;;;;;;21.95;66.85;100268.34;5025295;28;20194;-68
2021/09/12 09:47:51;;;;;;;2.60;1.70;;;;;;;21.88;67.02;100264.66;5028383;28;20662;-70
2021/09/12 09:50:20;;;;;;;2.73;1.70;;;;;;;21.85;67.20;100266.94;5038038;28;20223;-69
2021/09/12 09:52:50;;;;;;;1.97;1.87;;;;;;;21.73;67.99;100266.53;5028592;28;20199;-69
2021/09/12 09:55:21;;;;;;;1.97;1.80;;;;;;;21.91;67.11;100266.16;5028382;28;20716;-69
2021/09/12 09:57:52;;;;;;;1.73;1.60;;;;;;;22.01;66.20;100270.31;5027739;28;20195;-69
2021/09/12 10:00:23;;;;;;;1.80;1.70;;;;;;;22.10;66.89;100275.72;5026665;28;20313;-70
2021/09/12 10:02:51;;;;;;;3.37;1.60;;;;;;;21.99;67.09;100274.25;5043758;28;20211;-69
2021/09/12 10:05:20;;;;;;;2.03;1.80;;;;;;;21.98;66.97;100267.09;5043438;28;20297;-69
2021/09/12 10:07:49;;;;;;;3.90;1.90;;;;;;;22.24;65.92;100277.56;5028932;28;20202;-70
2021/09/12 10:10:20;;;;;;;2.00;1.80;;;;;;;22.28;65.86;100279.75;5025484;28;20238;-69
2021/09/12 10:12:50;;;;;;;3.37;1.60;;;;;;;22.25;66.19;100279.28;5025750;28;20670;-70
2021/09/12 10:15:24;;;;;;;3.07;1.43;;;;;;;22.25;65.67;100258.22;5043264;28;20199;-69
2021/09/12 10:17:53;;;;;;;1.73;1.50;;;;;;;22.48;65.31;100268.19;5025050;28;20230;-68
2021/09/12 10:20:25;;;;;;;2.37;1.70;;;;;;;22.47;65.34;100272.81;5030732;28;20203;-69
2021/09/12 10:22:55;;;;;;;1.57;1.47;;;;;;;22.35;65.21;100263.44;5025883;28;20206;-69
2021/09/12 10:25:24;;;;;;;3.30;1.73;;;;;;;22.27;64.81;100255.31;5032392;28;20252;-69
2021/09/12 10:28:03;;;;;;;1.50;1.40;;;;;;;22.57;64.06;100256.06;5025189;28;20693;-69
2021/09/12 10:30:37;;;;;;;2.93;1.73;;;;;;;22.27;64.80;100236.16;5019959;28;20689;-69
2021/09/12 10:33:20;;;;;;;2.03;1.50;;;;;;;22.55;63.48;100236.25;5032492;28;20233;-69
2021/09/12 10:36:00;;;;;;;2.07;1.60;;;;;;;22.82;63.97;100251.13;5028684;28;20260;-71
2021/09/12 10:38:34;;;;;;;1.60;1.50;;;;;;;23.13;62.48;100251.63;5031161;28;20661;-69
2021/09/12 10:41:18;;;;;;;1.60;1.50;;;;;;;22.78;62.42;100173.94;5033245;28;20194;-69
2021/09/12 10:43:52;;;;;;;1.53;1.43;;;;;;;23.42;62.48;100238.78;5033447;28;20327;-70
2021/09/12 10:46:23;;;;;;;2.13;1.50;;;;;;;23.74;61.13;100231.84;5033236;28;20213;-70
2021/09/12 10:49:16;;;;;;;1.50;1.40;;;;;;;23.81;60.34;100229.97;5033279;28;20252;-70
2021/09/12 10:51:45;;;;;;;2.63;1.50;;;;;;;23.63;60.81;100233.25;5018406;28;20718;-71
2021/09/12 10:54:13;;;;;;;1.80;1.70;;;;;;;23.64;60.67;100226.72;5033131;28;20199;-70
2021/09/12 10:56:42;;;;;;;1.43;1.33;;;;;;;23.78;60.61;100216.66;5033372;28;20206;-71
2021/09/12 10:59:15;;;;;;;1.70;1.50;;;;;;;23.63;60.40;100194.03;5031208;28;20272;-71
2021/09/12 11:01:49;;;;;;;1.30;1.20;;;;;;;23.72;60.89;100196.41;5030403;28;20211;-71
2021/09/12 11:04:19;;;;;;;1.50;1.40;;;;;;;23.74;60.93;100182.47;5045563;28;20289;-71
2021/09/12 11:06:48;;;;;;;1.40;1.30;;;;;;;23.93;60.81;100202.84;5022594;28;20207;-70
2021/09/12 11:09:22;;;;;;;1.23;1.23;;;;;;;24.13;60.14;100195.50;5024493;28;20211;-70
2021/09/12 11:11:55;;;;;;;1.50;1.40;;;;;;;24.48;60.24;100196.28;5027720;28;20363;-70
2021/09/12 11:14:24;;;;;;;4.53;1.30;;;;;;;24.69;58.65;100198.00;5027652;28;20657;-69
2021/09/12 11:16:54;;;;;;;1.63;1.40;;;;;;;24.31;57.65;100201.31;5030811;28;20329;-70
2021/09/12 11:19:22;;;;;;;1.83;1.50;;;;;;;24.06;59.59;100208.38;5030862;28;20288;-70
2021/09/12 11:21:52;;;;;;;1.37;1.23;;;;;;;24.07;59.62;100210.91;5031530;28;20195;-70
2021/09/12 11:24:22;;;;;;;2.33;1.47;;;;;;;23.75;59.63;100160.34;5046885;28;20202;-70
2021/09/12 11:26:53;;;;;;;3.20;1.13;;;;;;;23.92;58.93;100207.47;5031553;28;20654;-70
2021/09/12 11:29:25;;;;;;;1.20;1.10;;;;;;;24.01;58.94;100202.66;5030538;28;20445;-70
2021/09/12 11:31:56;;;;;;;2.53;1.30;;;;;;;24.06;58.13;100200.13;5030046;28;20210;-70
2021/09/12 11:34:25;;;;;;;1.20;1.10;;;;;;;24.00;58.45;100159.81;5029831;28;20198;-70